Terminal Aerodrome Forecast
Issued by NWS Shreveport, LA

Home | Current Version | Previous Version | Text Only | Print | Product List | Glossary On
Versions: 1 2 3 4 5 6 7 8 9 10 11 12
000
FTUS44 KSHV 190524
TAFELD
TAF
KELD 190524Z 1906/2006 00000KT P6SM SCT280
      TEMPO 1912/1914 5SM BR BKN280
     FM191400 VRB03KT P6SM BKN280
     FM191600 12005KT P6SM BKN280
     FM200000 08002KT P6SM BKN280=

USA.gov is the U.S. government's official web portal to all federal, state and local government web resources and services.